Time;durP1;ratioP1;P1;durP2;ratioP2;P2;SDS_P1;SDS_P2;PMS_P1;PMS_P2;Temp;Humidity;BMP_temperature;BMP_pressure;BME280_temperature;BME280_humidity;BME280_pressure;Samples;Min_cycle;Max_cycle;Signal;HPM_P1;HPM_P2
2023/09/19 00:00:46;;;;;;;627.10;596.72;;;;;;;25.33;61.89;98192.00;5038207;27;103025;-66
2023/09/19 00:03:17;;;;;;;632.20;600.20;;;;;;;24.79;63.36;98187.00;5039502;27;104324;-66
2023/09/19 00:05:45;;;;;;;695.10;660.53;;;;;;;25.29;62.24;98188.09;5056018;27;103293;-66
2023/09/19 00:08:14;;;;;;;775.58;735.75;;;;;;;25.33;62.14;98192.00;5060252;27;103262;-66
2023/09/19 00:10:43;;;;;;;769.50;731.53;;;;;;;25.29;62.84;98202.41;5061618;27;103290;-66
2023/09/19 00:13:13;;;;;;;733.35;695.28;;;;;;;25.65;60.20;98218.06;5059761;27;102782;-66
2023/09/19 00:15:48;;;;;;;747.73;709.20;;;;;;;25.64;60.73;98210.97;5059889;27;104001;-67
2023/09/19 00:18:21;;;;;;;708.88;672.55;;;;;;;25.65;60.48;98218.06;5059471;27;103183;-66
2023/09/19 00:20:52;;;;;;;708.33;672.97;;;;;;;25.54;60.47;98221.47;5059694;27;102905;-66
2023/09/19 00:23:21;;;;;;;690.55;654.97;;;;;;;26.06;58.99;98225.66;5059462;27;102744;-66
2023/09/19 00:25:50;;;;;;;680.72;645.75;;;;;;;25.79;59.71;98225.03;5038684;27;103218;-66
2023/09/19 00:28:19;;;;;;;655.95;622.35;;;;;;;25.32;61.17;98222.78;5058880;27;103258;-66
2023/09/19 00:30:49;;;;;;;679.80;644.58;;;;;;;25.65;60.18;98228.88;5034780;27;102939;-65
2023/09/19 00:33:20;;;;;;;665.73;631.57;;;;;;;25.50;60.28;98231.03;5033814;27;104572;-66
2023/09/19 00:35:48;;;;;;;705.80;669.83;;;;;;;25.46;60.98;98237.88;5041331;27;104511;-65
2023/09/19 00:38:16;;;;;;;691.77;657.00;;;;;;;25.23;61.97;98234.91;5058924;27;104332;-65
2023/09/19 00:40:45;;;;;;;706.25;671.33;;;;;;;25.42;61.63;98238.53;5039694;27;102737;-66
2023/09/19 00:43:13;;;;;;;669.78;635.42;;;;;;;25.85;58.83;98237.66;5038306;27;102767;-66
2023/09/19 00:45:45;;;;;;;665.67;631.33;;;;;;;25.72;59.13;98243.19;5040462;27;103192;-65
2023/09/19 00:48:13;;;;;;;632.85;600.83;;;;;;;25.37;60.77;98247.31;5034803;27;102805;-65
2023/09/19 00:50:44;;;;;;;633.90;601.97;;;;;;;25.58;60.17;98244.31;5042935;27;103189;-66
2023/09/19 00:53:18;;;;;;;624.30;593.72;;;;;;;25.35;60.95;98249.38;5034696;27;104298;-65
2023/09/19 00:55:47;;;;;;;638.83;607.42;;;;;;;25.46;60.44;98246.00;5047895;27;104362;-66
2023/09/19 00:58:18;;;;;;;667.83;635.28;;;;;;;25.71;59.64;98254.22;5033856;27;104126;-65
2023/09/19 01:00:49;;;;;;;641.20;609.10;;;;;;;25.61;59.71;98260.09;5065242;27;102672;-66
2023/09/19 01:03:18;;;;;;;621.88;590.97;;;;;;;25.68;60.08;98252.78;5054645;27;103047;-66
2023/09/19 01:05:49;;;;;;;628.22;597.47;;;;;;;25.36;60.82;98262.69;5057316;27;102633;-66
2023/09/19 01:08:19;;;;;;;682.63;649.80;;;;;;;25.42;60.85;98261.00;5054968;27;104581;-65
2023/09/19 01:10:53;;;;;;;634.53;603.53;;;;;;;25.76;59.82;98266.06;5035129;27;102836;-66
2023/09/19 01:13:32;;;;;;;635.50;605.35;;;;;;;24.84;62.55;98264.75;5053721;27;102923;-66
2023/09/19 01:16:11;;;;;;;648.20;616.38;;;;;;;25.30;61.01;98262.72;5041908;27;103855;-65
2023/09/19 01:18:48;;;;;;;627.13;595.78;;;;;;;25.54;59.93;98264.72;5032661;27;104104;-65
2023/09/19 01:21:28;;;;;;;624.47;592.97;;;;;;;25.61;59.58;98267.38;5061059;27;102974;-65
2023/09/19 01:24:17;;;;;;;635.20;604.25;;;;;;;25.45;60.39;98271.41;5054398;27;102665;-66
2023/09/19 01:27:18;;;;;;;613.67;582.60;;;;;;;25.52;59.67;98271.38;5056870;27;104340;-66
2023/09/19 01:29:47;;;;;;;617.30;586.63;;;;;;;25.86;59.53;98273.69;5042063;27;104281;-65
2023/09/19 01:32:21;;;;;;;621.65;590.10;;;;;;;26.02;58.40;98270.44;5057227;27;102707;-66
2023/09/19 01:34:52;;;;;;;617.38;586.88;;;;;;;25.88;58.92;98283.22;5036024;27;104395;-66
2023/09/19 01:37:25;;;;;;;628.47;596.90;;;;;;;25.86;59.63;98279.09;5036364;27;104608;-65
2023/09/19 01:39:57;;;;;;;596.00;566.13;;;;;;;25.39;60.46;98274.94;5055474;27;103067;-66
2023/09/19 01:42:38;;;;;;;612.67;582.25;;;;;;;25.89;58.79;98273.25;5034512;27;102843;-66
2023/09/19 01:45:14;;;;;;;576.60;547.85;;;;;;;25.59;58.92;98280.28;5061593;27;103737;-65
2023/09/19 01:47:49;;;;;;;572.77;544.57;;;;;;;25.40;59.87;98294.72;5055579;27;104341;-66
2023/09/19 01:50:26;;;;;;;603.78;573.30;;;;;;;25.93;58.17;98279.88;5058994;27;103202;-65
2023/09/19 01:53:00;;;;;;;612.40;581.72;;;;;;;26.29;56.96;98273.81;5054565;27;102836;-65
2023/09/19 01:55:30;;;;;;;590.13;560.50;;;;;;;26.09;57.20;98278.53;5034404;27;104238;-65
2023/09/19 01:58:07;;;;;;;562.20;533.33;;;;;;;25.77;57.74;98286.63;5054031;27;103001;-65
2023/09/19 02:00:38;;;;;;;601.30;571.30;;;;;;;26.32;56.67;98286.91;5036989;27;103255;-65
2023/09/19 02:03:09;;;;;;;537.50;511.15;;;;;;;25.64;58.63;98302.09;5054207;27;102708;-66
2023/09/19 02:05:38;;;;;;;597.10;567.03;;;;;;;25.92;57.72;98295.28;5057751;27;103007;-66
2023/09/19 02:08:06;;;;;;;594.93;564.73;;;;;;;25.97;57.28;98304.63;5043560;27;104381;-66
2023/09/19 02:10:35;;;;;;;593.83;564.10;;;;;;;26.03;57.49;98301.03;5038781;27;104451;-66
2023/09/19 02:13:05;;;;;;;569.33;540.72;;;;;;;25.86;57.01;98308.84;5038537;27;102944;-66
2023/09/19 02:15:34;;;;;;;546.23;519.10;;;;;;;25.73;57.70;98312.47;5041473;27;103320;-66
2023/09/19 02:18:03;;;;;;;598.05;568.35;;;;;;;25.98;56.80;98306.28;5043347;27;104227;-66
2023/09/19 02:20:33;;;;;;;524.78;498.75;;;;;;;25.44;58.88;98312.97;5039701;27;104045;-66
2023/09/19 02:23:02;;;;;;;573.38;545.22;;;;;;;26.07;57.09;98303.09;5059549;27;103001;-66
2023/09/19 02:25:30;;;;;;;579.70;551.53;;;;;;;26.38;55.74;98310.41;5038740;27;103747;-66
2023/09/19 02:28:02;;;;;;;590.72;561.60;;;;;;;26.40;55.80;98314.56;5044386;27;104136;-66
2023/09/19 02:30:33;;;;;;;573.60;545.35;;;;;;;26.06;57.05;98312.28;5066828;27;103018;-66
2023/09/19 02:33:02;;;;;;;568.85;540.95;;;;;;;26.13;56.99;98320.34;5041133;27;103069;-66
2023/09/19 02:35:36;;;;;;;582.72;554.55;;;;;;;26.38;55.61;98315.81;5063100;27;104211;-66
2023/09/19 02:38:06;;;;;;;582.00;553.45;;;;;;;26.32;55.58;98312.13;5061921;27;103304;-66
2023/09/19 02:40:35;;;;;;;566.53;539.45;;;;;;;26.34;56.12;98315.44;5063959;27;103395;-66
2023/09/19 02:43:04;;;;;;;538.73;512.13;;;;;;;26.07;56.62;98313.94;5066331;27;103139;-66
2023/09/19 02:45:33;;;;;;;554.42;527.42;;;;;;;26.34;55.59;98326.25;5059063;27;105290;-66
2023/09/19 02:48:02;;;;;;;427.13;406.13;;;;;;;25.20;58.86;98327.22;5058042;27;104093;-66
2023/09/19 02:50:30;;;;;;;526.70;500.52;;;;;;;25.83;57.53;98325.50;5041657;27;103292;-66
2023/09/19 02:53:00;;;;;;;576.92;548.10;;;;;;;26.19;56.33;98330.34;5043560;27;103059;-66
2023/09/19 02:55:28;;;;;;;583.33;554.20;;;;;;;26.36;55.54;98336.84;5039355;27;104497;-66
2023/09/19 02:57:56;;;;;;;575.70;546.92;;;;;;;26.41;55.26;98334.34;5040917;27;104552;-66
2023/09/19 03:00:24;;;;;;;589.78;560.22;;;;;;;26.49;55.30;98334.06;5041952;27;102997;-66
2023/09/19 03:02:55;;;;;;;583.55;554.53;;;;;;;26.54;54.90;98339.66;5061729;27;102738;-66
2023/09/19 03:05:24;;;;;;;566.13;538.25;;;;;;;26.53;55.05;98346.09;5040991;27;103122;-67
2023/09/19 03:07:53;;;;;;;588.67;559.60;;;;;;;26.49;54.39;98343.03;5041591;27;106268;-66
2023/09/19 03:10:24;;;;;;;594.53;564.58;;;;;;;26.58;54.69;98338.16;5034755;27;103580;-66
2023/09/19 03:12:53;;;;;;;596.47;566.53;;;;;;;26.40;54.43;98349.75;5041267;27;104085;-66
2023/09/19 03:15:23;;;;;;;582.53;553.30;;;;;;;26.36;55.06;98339.56;5062935;27;103059;-66
2023/09/19 03:17:53;;;;;;;586.45;557.58;;;;;;;26.56;54.96;98347.53;5036492;27;104109;-66
2023/09/19 03:20:23;;;;;;;570.10;541.70;;;;;;;26.61;55.12;98339.59;5058795;27;104309;-66
2023/09/19 03:22:52;;;;;;;586.97;558.00;;;;;;;26.62;54.65;98350.19;5039246;27;103068;-66
2023/09/19 03:25:22;;;;;;;534.40;508.23;;;;;;;26.63;54.81;98341.03;5041181;27;104229;-66
2023/09/19 03:27:53;;;;;;;579.80;551.20;;;;;;;26.73;54.56;98340.50;5039541;27;104659;-66
2023/09/19 03:30:23;;;;;;;586.13;557.00;;;;;;;26.58;54.30;98349.00;5037542;27;103525;-66
2023/09/19 03:32:51;;;;;;;531.43;505.17;;;;;;;26.30;55.68;98340.47;5043290;27;104289;-66
2023/09/19 03:35:20;;;;;;;574.33;545.88;;;;;;;26.48;54.98;98349.47;5036962;27;104225;-66
2023/09/19 03:37:48;;;;;;;579.17;550.72;;;;;;;26.59;54.95;98345.22;5038164;27;104288;-66
2023/09/19 03:40:20;;;;;;;561.90;533.65;;;;;;;26.49;55.48;98347.59;5041420;27;103077;-66
2023/09/19 03:42:50;;;;;;;518.65;491.80;;;;;;;25.94;57.12;98347.31;5035398;27;102872;-66
2023/09/19 03:45:20;;;;;;;538.63;512.30;;;;;;;26.35;54.96;98349.59;5055098;27;103856;-66
2023/09/19 03:47:51;;;;;;;570.72;542.45;;;;;;;26.42;54.96;98349.53;5059956;27;103696;-66
2023/09/19 03:50:21;;;;;;;574.63;546.45;;;;;;;26.53;54.88;98356.94;5035006;27;105953;-66
2023/09/19 03:52:50;;;;;;;567.65;539.70;;;;;;;26.22;55.46;98346.13;5036143;27;102844;-67
2023/09/19 03:55:18;;;;;;;482.07;457.73;;;;;;;25.28;59.02;98356.72;5056933;27;103930;-66
2023/09/19 03:57:50;;;;;;;567.43;539.50;;;;;;;26.12;56.47;98353.88;5056366;27;104021;-66
2023/09/19 04:00:21;;;;;;;580.87;551.97;;;;;;;26.27;55.56;98349.03;5041844;27;103889;-66
2023/09/19 04:02:50;;;;;;;588.90;559.63;;;;;;;26.55;55.41;98351.31;5036517;27;102823;-66
2023/09/19 04:05:18;;;;;;;526.47;500.52;;;;;;;26.59;56.30;98344.38;5038930;27;102754;-65
2023/09/19 04:07:46;;;;;;;558.42;529.97;;;;;;;26.55;57.18;98357.56;5062544;27;103232;-65
2023/09/19 04:10:14;;;;;;;511.77;486.30;;;;;;;26.06;58.56;98365.56;5048467;27;103239;-64
2023/09/19 04:12:51;;;;;;;620.05;591.30;;;;;;;24.81;64.33;98354.31;5068908;27;102824;-65
2023/09/19 04:15:22;;;;;;;1095.03;999.90;;;;;;;24.59;67.34;98350.97;5048850;27;103814;-65
2023/09/19 04:17:53;;;;;;;1323.35;999.90;;;;;;;25.01;66.06;98349.72;5041421;27;104173;-65
2023/09/19 04:20:23;;;;;;;1343.57;999.90;;;;;;;25.49;64.60;98345.66;5045742;27;104112;-65
2023/09/19 04:22:51;;;;;;;1291.80;999.90;;;;;;;25.70;63.65;98348.06;5060489;27;102970;-64
2023/09/19 04:25:20;;;;;;;1355.97;999.90;;;;;;;25.40;65.51;98357.75;5063386;27;104090;-64
2023/09/19 04:27:48;;;;;;;1268.70;999.90;;;;;;;25.72;63.26;98362.19;5040555;27;104234;-65
2023/09/19 04:30:16;;;;;;;1254.93;999.90;;;;;;;25.87;62.77;98361.94;5041178;27;104097;-64
2023/09/19 04:32:50;;;;;;;1294.57;999.90;;;;;;;25.87;63.94;98368.19;5054310;27;102825;-64
2023/09/19 04:35:19;;;;;;;1266.30;999.90;;;;;;;25.54;64.74;98367.50;5033727;27;103117;-64
2023/09/19 04:37:47;;;;;;;1304.13;999.90;;;;;;;25.64;64.29;98373.28;5061368;27;103308;-64
2023/09/19 04:40:17;;;;;;;1248.95;999.90;;;;;;;25.88;63.89;98369.00;5040880;27;104422;-64
2023/09/19 04:42:47;;;;;;;1096.05;999.90;;;;;;;25.95;63.08;98369.78;5035556;27;103243;-64
2023/09/19 04:45:15;;;;;;;1173.85;999.90;;;;;;;25.83;63.51;98371.50;5058531;27;104072;-64
2023/09/19 04:47:44;;;;;;;1157.00;999.90;;;;;;;25.76;64.72;98376.97;5060239;27;103332;-64
2023/09/19 04:50:13;;;;;;;1070.93;999.90;;;;;;;26.06;63.14;98376.38;5060864;27;102978;-64
2023/09/19 04:52:44;;;;;;;1052.28;985.50;;;;;;;25.66;64.02;98378.44;5056931;27;102843;-64
2023/09/19 04:55:16;;;;;;;1158.53;999.90;;;;;;;25.87;64.71;98386.28;5042684;27;104352;-64
2023/09/19 04:57:45;;;;;;;1103.63;999.90;;;;;;;26.15;63.66;98396.78;5050219;27;104186;-64
2023/09/19 05:00:14;;;;;;;931.75;878.22;;;;;;;26.25;63.19;98402.53;5046330;27;103893;-64
2023/09/19 05:02:42;;;;;;;834.20;790.88;;;;;;;26.18;62.46;98401.75;5061492;27;102733;-64
2023/09/19 05:05:11;;;;;;;846.33;801.97;;;;;;;26.27;62.51;98403.19;5040991;27;104327;-64
2023/09/19 05:07:42;;;;;;;1091.85;999.90;;;;;;;25.80;65.38;98413.34;5059329;27;104004;-65
2023/09/19 05:10:11;;;;;;;1217.43;999.90;;;;;;;25.78;65.55;98411.91;5059944;27;103253;-65
2023/09/19 05:12:40;;;;;;;1314.10;999.90;;;;;;;25.50;65.56;98414.09;5062978;27;102872;-65
2023/09/19 05:15:08;;;;;;;1193.45;999.90;;;;;;;25.82;65.42;98407.75;5046317;27;104138;-64
2023/09/19 05:17:38;;;;;;;1136.37;999.90;;;;;;;25.61;65.23;98405.31;5065437;27;104408;-65
2023/09/19 05:20:15;;;;;;;1152.53;999.90;;;;;;;26.00;64.91;98409.72;5062382;27;106351;-65
2023/09/19 05:22:46;;;;;;;1099.83;999.90;;;;;;;25.96;64.62;98424.75;5062696;27;102803;-65
2023/09/19 05:25:16;;;;;;;994.65;935.10;;;;;;;26.25;63.56;98424.19;5044637;27;104023;-65
2023/09/19 05:27:44;;;;;;;880.03;832.83;;;;;;;26.30;63.17;98421.69;5062342;27;104164;-65
2023/09/19 05:30:14;;;;;;;952.60;899.10;;;;;;;25.76;64.61;98425.66;5042514;27;103534;-65
2023/09/19 05:32:43;;;;;;;1101.40;999.90;;;;;;;24.90;69.24;98432.22;5062572;27;102739;-66
2023/09/19 05:35:12;;;;;;;1193.25;999.90;;;;;;;25.25;67.70;98444.47;5059129;27;102681;-65
2023/09/19 05:37:41;;;;;;;1222.40;999.90;;;;;;;24.22;71.14;98444.16;5063566;27;103421;-64
2023/09/19 05:40:12;;;;;;;1171.50;999.90;;;;;;;25.32;67.36;98444.44;5050024;27;103706;-65
2023/09/19 05:42:41;;;;;;;1007.40;946.67;;;;;;;25.49;66.16;98445.69;5059809;27;102715;-65
2023/09/19 05:45:12;;;;;;;945.35;892.55;;;;;;;25.25;67.72;98454.47;5046961;27;104140;-65
2023/09/19 05:47:42;;;;;;;981.15;922.65;;;;;;;24.71;69.68;98463.56;5067319;27;103350;-65
2023/09/19 05:50:11;;;;;;;1136.17;999.90;;;;;;;24.25;71.54;98464.53;5062669;27;103260;-65
2023/09/19 05:52:43;;;;;;;1191.53;999.90;;;;;;;24.01;71.46;98476.63;5060966;27;102677;-65
2023/09/19 05:55:13;;;;;;;1051.85;983.45;;;;;;;24.38;70.49;98484.28;5060875;27;102653;-64
2023/09/19 05:57:43;;;;;;;1005.13;942.55;;;;;;;23.90;70.93;98488.84;5060752;27;103923;-64
2023/09/19 06:00:12;;;;;;;918.60;866.00;;;;;;;24.01;68.61;98490.97;5062140;27;103197;-64
2023/09/19 06:02:41;;;;;;;853.28;808.92;;;;;;;24.09;67.22;98503.44;5064942;27;102724;-65
2023/09/19 06:05:11;;;;;;;813.15;772.97;;;;;;;22.70;71.75;98508.03;5037598;27;103814;-64
2023/09/19 06:07:38;;;;;;;830.70;788.42;;;;;;;23.39;67.80;98503.66;5053586;27;104114;-64
2023/09/19 06:10:09;;;;;;;802.17;762.20;;;;;;;22.92;70.42;98506.97;5045852;27;102987;-64
2023/09/19 06:12:40;;;;;;;828.53;786.63;;;;;;;23.05;70.33;98496.31;5066852;27;103076;-64
2023/09/19 06:15:12;;;;;;;855.58;809.97;;;;;;;23.65;69.50;98504.69;5037698;27;103716;-64
2023/09/19 06:17:41;;;;;;;853.85;807.22;;;;;;;23.33;71.23;98504.41;5062065;27;104145;-64
2023/09/19 06:20:12;;;;;;;937.92;884.63;;;;;;;23.82;68.62;98501.66;5062481;27;103211;-64
2023/09/19 06:22:43;;;;;;;808.45;767.28;;;;;;;23.56;68.57;98494.25;5064123;27;102673;-64
2023/09/19 06:25:19;;;;;;;855.37;808.87;;;;;;;23.74;69.66;98504.53;5047309;27;104442;-64
2023/09/19 06:27:51;;;;;;;884.58;834.58;;;;;;;24.21;68.06;98504.56;5061324;27;104310;-64
2023/09/19 06:30:22;;;;;;;896.75;847.45;;;;;;;24.42;65.78;98501.72;5047274;27;104218;-64
2023/09/19 06:32:57;;;;;;;812.53;771.13;;;;;;;23.80;68.85;98506.44;5061520;27;102602;-64
2023/09/19 06:35:26;;;;;;;861.03;815.38;;;;;;;24.40;66.23;98503.78;5052256;27;103933;-62
2023/09/19 06:37:57;;;;;;;842.17;797.97;;;;;;;24.15;67.63;98508.91;5061498;27;104210;-62
2023/09/19 06:40:28;;;;;;;871.40;825.22;;;;;;;24.14;68.41;98509.13;5061091;27;103141;-62
2023/09/19 06:42:58;;;;;;;836.27;795.13;;;;;;;25.03;64.18;98504.38;5065833;27;102763;-63
2023/09/19 06:45:26;;;;;;;758.67;722.10;;;;;;;24.73;64.00;98504.72;5064123;27;103965;-64
2023/09/19 06:48:02;;;;;;;800.05;760.83;;;;;;;24.21;68.17;98509.97;5073059;27;104980;-63
2023/09/19 06:50:35;;;;;;;879.75;835.10;;;;;;;25.00;64.45;98507.47;5065995;27;103189;-62
2023/09/19 06:53:04;;;;;;;805.60;765.42;;;;;;;25.06;62.95;98514.75;5069992;27;103117;-63
2023/09/19 06:55:32;;;;;;;745.53;708.40;;;;;;;25.34;62.81;98523.50;5053183;27;102788;-63
2023/09/19 06:58:08;;;;;;;838.45;796.92;;;;;;;25.17;63.56;98514.97;5078339;27;103704;-63
2023/09/19 07:00:38;;;;;;;849.73;806.23;;;;;;;25.59;63.37;98511.03;5072150;27;102996;-63
2023/09/19 07:03:11;;;;;;;841.67;798.55;;;;;;;25.17;64.53;98511.44;5073577;27;102637;-64
2023/09/19 07:05:42;;;;;;;843.57;801.40;;;;;;;25.49;63.69;98532.25;5072258;27;102922;-62
2023/09/19 07:08:12;;;;;;;923.85;875.83;;;;;;;24.37;67.16;98530.38;5076726;27;104100;-64
2023/09/19 07:10:48;;;;;;;1999.90;999.90;;;;;;;24.88;63.72;98538.84;5070291;27;103508;-63
2023/09/19 07:13:19;;;;;;;1999.90;999.90;;;;;;;24.81;63.58;98540.72;5070746;27;102744;-64
2023/09/19 07:15:51;;;;;;;1999.90;999.90;;;;;;;25.41;62.02;98543.25;5055095;27;102849;-64
2023/09/19 07:18:19;;;;;;;1999.90;999.90;;;;;;;24.32;64.10;98555.28;5067891;27;104555;-62
2023/09/19 07:20:49;;;;;;;1999.90;999.90;;;;;;;25.10;61.00;98545.72;5052977;27;104244;-64
2023/09/19 07:23:19;;;;;;;1999.90;999.90;;;;;;;25.17;62.12;98549.28;5069432;27;102664;-63
2023/09/19 07:25:48;;;;;;;1999.90;999.90;;;;;;;25.08;60.49;98555.91;5070126;27;103257;-62
2023/09/19 07:28:17;;;;;;;1999.90;999.90;;;;;;;24.67;63.45;98547.94;5069315;27;103058;-62
2023/09/19 07:30:47;;;;;;;1999.90;999.90;;;;;;;25.69;60.27;98549.28;5076871;27;103020;-64
2023/09/19 07:33:18;;;;;;;1999.90;999.90;;;;;;;25.70;59.59;98552.81;5070422;27;102755;-62
2023/09/19 07:35:47;;;;;;;1999.90;999.90;;;;;;;26.44;58.34;98555.97;5056688;27;102756;-64
2023/09/19 07:38:18;;;;;;;1999.90;999.90;;;;;;;26.11;60.04;98560.63;5070974;27;104268;-63
2023/09/19 07:40:46;;;;;;;1999.90;999.90;;;;;;;26.18;57.60;98565.03;5074660;27;103274;-64
2023/09/19 07:43:15;;;;;;;1999.90;999.90;;;;;;;25.74;59.79;98563.00;5049385;27;102939;-64
2023/09/19 07:45:43;;;;;;;1999.90;999.90;;;;;;;25.80;59.69;98570.28;5073232;27;102787;-63
2023/09/19 07:48:14;;;;;;;1999.90;999.90;;;;;;;26.24;58.56;98568.75;5047821;27;104200;-63
2023/09/19 07:50:44;;;;;;;1999.90;999.90;;;;;;;26.54;55.86;98563.63;5066014;27;103316;-63
2023/09/19 07:53:13;;;;;;;1999.90;999.90;;;;;;;26.93;54.61;98567.00;5070428;27;102886;-63
2023/09/19 07:55:43;;;;;;;1999.90;999.90;;;;;;;26.31;56.78;98573.09;5058086;27;103118;-62
2023/09/19 07:58:15;;;;;;;1999.90;999.90;;;;;;;26.18;57.26;98567.75;5050336;27;104399;-64
2023/09/19 08:00:44;;;;;;;1999.90;999.90;;;;;;;26.77;57.46;98574.78;5071096;27;103507;-64
2023/09/19 08:03:14;;;;;;;1999.90;999.90;;;;;;;26.67;58.13;98579.81;5072491;27;102831;-64
2023/09/19 08:05:45;;;;;;;1999.90;999.90;;;;;;;27.23;55.23;98579.94;5072615;27;102844;-65
2023/09/19 08:08:14;;;;;;;1999.90;999.90;;;;;;;27.05;54.64;98588.81;5077032;27;104143;-63
2023/09/19 08:10:45;;;;;;;1999.90;999.90;;;;;;;26.61;55.56;98591.53;5053675;27;104329;-63
2023/09/19 08:13:14;;;;;;;1999.90;999.90;;;;;;;26.93;54.89;98585.97;5050883;27;103139;-63
2023/09/19 08:15:45;;;;;;;1999.90;999.90;;;;;;;27.79;52.65;98583.44;5072927;27;104604;-63
2023/09/19 08:18:15;;;;;;;1999.90;999.90;;;;;;;27.67;52.12;98582.53;5069084;27;103324;-64
2023/09/19 08:20:46;;;;;;;1999.90;999.90;;;;;;;27.32;54.17;98590.28;5073798;27;103352;-63
2023/09/19 08:23:17;;;;;;;1999.90;999.90;;;;;;;27.39;53.23;98592.97;5072886;27;102651;-64
2023/09/19 08:25:45;;;;;;;1796.50;999.90;;;;;;;27.02;52.83;98584.66;5069659;27;104004;-63
2023/09/19 08:28:17;;;;;;;1697.93;999.90;;;;;;;28.17;50.52;98586.84;5078163;27;105294;-62
2023/09/19 08:30:46;;;;;;;1581.53;999.90;;;;;;;28.95;50.02;98596.97;5071099;27;103214;-64
2023/09/19 08:33:23;;;;;;;1609.43;999.90;;;;;;;28.29;51.36;98592.38;5073531;27;102853;-63
2023/09/19 08:36:09;;;;;;;1664.43;999.90;;;;;;;27.36;50.99;98596.09;5053594;27;103349;-63
2023/09/19 08:38:45;;;;;;;1807.53;999.90;;;;;;;28.40;50.92;98588.06;5052593;27;104568;-63
2023/09/19 08:41:13;;;;;;;1733.78;999.90;;;;;;;27.53;51.68;98595.38;5074695;27;103308;-64
2023/09/19 08:43:43;;;;;;;1616.60;999.90;;;;;;;28.05;50.93;98601.38;5053861;27;102856;-62
2023/09/19 08:46:15;;;;;;;1748.30;999.90;;;;;;;28.24;51.44;98599.53;5073422;27;104023;-64
2023/09/19 08:48:59;;;;;;;1656.57;999.90;;;;;;;28.29;50.65;98597.81;5070833;27;103980;-62
2023/09/19 08:51:33;;;;;;;1738.97;999.90;;;;;;;28.21;50.01;98611.69;5072768;27;102907;-63
2023/09/19 08:54:27;;;;;;;1511.78;999.90;;;;;;;28.92;47.73;98609.16;5066926;27;103422;-65
2023/09/19 08:57:05;;;;;;;1472.43;999.90;;;;;;;28.56;47.98;98606.47;5065309;27;103300;-63
2023/09/19 08:59:41;;;;;;;1418.93;999.90;;;;;;;27.09;49.25;98610.91;5065067;27;103982;-64
2023/09/19 09:02:13;;;;;;;1426.60;999.90;;;;;;;28.14;48.55;98600.88;5066224;27;103200;-62
2023/09/19 09:04:45;;;;;;;1371.18;999.90;;;;;;;27.43;47.52;98605.03;5071754;27;102879;-63
2023/09/19 09:07:13;;;;;;;1352.82;999.90;;;;;;;27.77;46.87;98609.97;5070853;27;102614;-64
2023/09/19 09:09:42;;;;;;;1330.45;999.90;;;;;;;28.28;46.43;98606.16;5070112;27;103381;-63
2023/09/19 09:12:13;;;;;;;1343.35;999.90;;;;;;;27.97;47.45;98612.50;5071151;27;103529;-62
2023/09/19 09:14:42;;;;;;;1312.03;999.90;;;;;;;28.74;45.82;98612.72;5050344;27;102752;-64
2023/09/19 09:17:12;;;;;;;1291.63;999.90;;;;;;;28.22;46.32;98601.63;5051732;27;102938;-64
2023/09/19 09:19:43;;;;;;;1326.32;999.90;;;;;;;27.38;48.20;98616.53;5067726;27;103644;-64
2023/09/19 09:22:13;;;;;;;1215.80;999.90;;;;;;;27.12;46.81;98615.91;5070724;27;103953;-62
2023/09/19 09:24:53;;;;;;;1030.43;965.57;;;;;;;27.69;45.86;98612.97;5074570;27;102831;-62
2023/09/19 09:27:25;;;;;;;866.33;815.70;;;;;;;27.35;45.91;98618.84;5067658;27;102894;-64
2023/09/19 09:29:55;;;;;;;829.47;783.47;;;;;;;26.69;46.28;98621.94;5056290;27;102951;-62
2023/09/19 09:32:34;;;;;;;711.97;675.42;;;;;;;27.02;45.17;98628.03;5062160;27;103396;-65
2023/09/19 09:35:09;;;;;;;699.97;664.63;;;;;;;26.67;45.25;98613.16;5056583;27;103044;-63
2023/09/19 09:37:38;;;;;;;738.73;701.27;;;;;;;27.12;44.93;98626.75;5067610;27;102877;-64
2023/09/19 09:40:19;;;;;;;719.55;683.17;;;;;;;27.33;44.87;98613.66;5065357;27;104066;-65
2023/09/19 09:42:58;;;;;;;725.97;689.83;;;;;;;27.56;43.01;98615.81;5072031;27;103197;-62
2023/09/19 09:45:37;;;;;;;715.03;679.97;;;;;;;27.27;43.65;98613.69;5066574;27;102667;-63
2023/09/19 09:48:14;;;;;;;720.85;685.92;;;;;;;27.23;43.54;98615.19;5067980;27;103084;-62
2023/09/19 09:50:56;;;;;;;729.92;694.35;;;;;;;26.54;44.46;98618.66;5070886;27;102661;-64
2023/09/19 09:53:28;;;;;;;728.60;693.83;;;;;;;27.48;43.88;98610.66;5066110;27;103221;-65
2023/09/19 09:56:16;;;;;;;749.17;713.03;;;;;;;27.63;43.80;98619.28;5065212;27;102919;-62
2023/09/19 09:58:54;;;;;;;757.95;721.72;;;;;;;28.11;42.96;98612.19;5068851;27;102719;-64
2023/09/19 10:01:26;;;;;;;774.50;737.60;;;;;;;27.21;44.09;98606.44;5048083;27;104379;-64
2023/09/19 10:04:00;;;;;;;761.67;724.80;;;;;;;27.50;43.88;98611.25;5060106;27;103761;-62
2023/09/19 10:06:46;;;;;;;763.08;726.08;;;;;;;27.57;43.84;98620.16;5065339;27;102824;-64
2023/09/19 10:09:20;;;;;;;762.67;726.17;;;;;;;28.94;42.18;98612.47;5048440;27;104133;-63
2023/09/19 10:11:54;;;;;;;788.08;750.72;;;;;;;27.78;42.94;98606.22;5071877;27;103649;-65
2023/09/19 10:14:27;;;;;;;820.45;781.05;;;;;;;27.81;43.32;98597.63;5069679;27;103273;-66
2023/09/19 10:17:03;;;;;;;817.00;777.30;;;;;;;28.14;42.58;98603.59;5068255;27;102812;-62
2023/09/19 10:19:37;;;;;;;822.60;783.20;;;;;;;28.07;42.91;98607.44;5062124;27;102694;-65
2023/09/19 10:22:09;;;;;;;802.27;763.67;;;;;;;28.84;41.59;98595.88;5068688;27;104168;-63
2023/09/19 10:24:40;;;;;;;789.72;752.80;;;;;;;29.00;40.43;98589.78;5069437;27;103394;-63
2023/09/19 10:27:29;;;;;;;806.78;769.75;;;;;;;29.26;40.79;98581.28;5068829;27;103015;-62
2023/09/19 10:30:09;;;;;;;829.93;791.77;;;;;;;28.59;41.44;98603.28;5069797;27;102801;-62
2023/09/19 10:32:40;;;;;;;802.67;766.60;;;;;;;30.00;39.23;98590.72;5051337;27;104004;-64
2023/09/19 10:35:12;;;;;;;837.45;798.97;;;;;;;29.48;40.26;98591.59;5049512;27;104551;-63
2023/09/19 10:37:49;;;;;;;805.67;769.22;;;;;;;29.70;40.04;98587.28;5068723;27;103131;-64
2023/09/19 10:40:20;;;;;;;833.85;795.92;;;;;;;28.76;40.73;98598.91;5066937;27;104119;-62
2023/09/19 10:42:53;;;;;;;788.17;752.80;;;;;;;29.28;40.73;98603.63;5066531;27;103055;-61
2023/09/19 10:45:26;;;;;;;781.50;746.07;;;;;;;29.24;39.75;98597.00;5072159;27;103062;-63
2023/09/19 10:47:56;;;;;;;786.45;751.53;;;;;;;30.10;39.18;98590.13;5066956;27;102873;-62
2023/09/19 10:50:25;;;;;;;709.20;677.33;;;;;;;29.39;38.35;98585.66;5073507;27;102775;-62
2023/09/19 10:53:00;;;;;;;676.80;646.00;;;;;;;29.28;39.40;98598.19;5070029;27;104069;-63
2023/09/19 10:55:30;;;;;;;651.00;620.95;;;;;;;29.87;37.97;98589.06;5069361;27;103186;-64
2023/09/19 10:58:14;;;;;;;663.37;632.40;;;;;;;30.25;37.17;98599.47;5065378;27;102854;-63
2023/09/19 11:00:56;;;;;;;668.20;637.53;;;;;;;29.69;38.66;98600.03;5048491;27;104183;-65
2023/09/19 11:03:30;;;;;;;637.58;607.35;;;;;;;29.33;37.63;98595.59;5077319;27;103779;-65
2023/09/19 11:06:10;;;;;;;631.83;601.47;;;;;;;29.02;38.47;98595.84;5070003;27;103206;-64
2023/09/19 11:09:15;;;;;;;651.28;619.85;;;;;;;29.71;37.72;98591.63;5071704;27;102580;-62
2023/09/19 11:11:50;;;;;;;651.83;620.63;;;;;;;29.67;37.07;98585.00;5059900;27;102937;-62